sensor_id;sensor_type;location;lat;lon;timestamp;temperature;humidity
14236;DHT22;7202;50.718;7.072;2024-03-23T00:54:53;9.30;99.90
14236;DHT22;7202;50.718;7.072;2024-03-23T00:57:39;9.20;99.90
14236;DHT22;7202;50.718;7.072;2024-03-23T01:00:25;9.20;99.90
14236;DHT22;7202;50.718;7.072;2024-03-23T01:03:10;9.10;99.90
14236;DHT22;7202;50.718;7.072;2024-03-23T01:05:59;9.10;99.90
14236;DHT22;7202;50.718;7.072;2024-03-23T01:08:44;9.10;99.90
14236;DHT22;7202;50.718;7.072;2024-03-23T01:11:32;9.00;99.90
14236;DHT22;7202;50.718;7.072;2024-03-23T01:14:17;9.00;99.90
14236;DHT22;7202;50.718;7.072;2024-03-23T01:17:03;9.00;99.90
14236;DHT22;7202;50.718;7.072;2024-03-23T01:19:49;9.00;99.90
14236;DHT22;7202;50.718;7.072;2024-03-23T01:22:35;9.00;99.90
14236;DHT22;7202;50.718;7.072;2024-03-23T01:25:20;9.00;99.90
14236;DHT22;7202;50.718;7.072;2024-03-23T01:28:08;9.00;99.90
14236;DHT22;7202;50.718;7.072;2024-03-23T01:30:53;8.90;99.90
14236;DHT22;7202;50.718;7.072;2024-03-23T01:33:39;8.90;99.90
14236;DHT22;7202;50.718;7.072;2024-03-23T01:36:25;8.80;99.90
14236;DHT22;7202;50.718;7.072;2024-03-23T01:39:11;8.80;99.90
14236;DHT22;7202;50.718;7.072;2024-03-23T01:41:56;8.80;99.90
14236;DHT22;7202;50.718;7.072;2024-03-23T01:44:44;8.80;99.90
14236;DHT22;7202;50.718;7.072;2024-03-23T01:47:29;8.70;99.90
14236;DHT22;7202;50.718;7.072;2024-03-23T01:50:15;8.70;99.90
14236;DHT22;7202;50.718;7.072;2024-03-23T01:53:02;8.70;99.90
14236;DHT22;7202;50.718;7.072;2024-03-23T01:55:51;8.70;99.90
14236;DHT22;7202;50.718;7.072;2024-03-23T01:58:36;8.70;99.90
14236;DHT22;7202;50.718;7.072;2024-03-23T02:01:24;8.60;99.90
14236;DHT22;7202;50.718;7.072;2024-03-23T02:04:10;8.60;99.90
14236;DHT22;7202;50.718;7.072;2024-03-23T02:06:56;8.60;99.90
14236;DHT22;7202;50.718;7.072;2024-03-23T02:09:41;8.60;99.90
14236;DHT22;7202;50.718;7.072;2024-03-23T02:12:27;8.60;99.90
14236;DHT22;7202;50.718;7.072;2024-03-23T02:15:13;8.60;99.90
14236;DHT22;7202;50.718;7.072;2024-03-23T02:18:00;8.60;99.90
14236;DHT22;7202;50.718;7.072;2024-03-23T02:20:45;8.60;99.90
14236;DHT22;7202;50.718;7.072;2024-03-23T02:23:33;8.50;99.90
14236;DHT22;7202;50.718;7.072;2024-03-23T02:26:18;8.40;99.90
14236;DHT22;7202;50.718;7.072;2024-03-23T02:29:04;8.40;99.90
14236;DHT22;7202;50.718;7.072;2024-03-23T02:31:49;8.50;99.90
14236;DHT22;7202;50.718;7.072;2024-03-23T02:34:36;8.30;99.90
14236;DHT22;7202;50.718;7.072;2024-03-23T02:37:21;8.30;99.90
14236;DHT22;7202;50.718;7.072;2024-03-23T02:40:08;8.30;99.90
14236;DHT22;7202;50.718;7.072;2024-03-23T02:42:54;8.20;99.90
14236;DHT22;7202;50.718;7.072;2024-03-23T02:45:40;8.40;99.90
14236;DHT22;7202;50.718;7.072;2024-03-23T02:48:25;8.20;99.90
14236;DHT22;7202;50.718;7.072;2024-03-23T02:51:11;8.20;99.90
14236;DHT22;7202;50.718;7.072;2024-03-23T02:53:56;8.10;99.90
14236;DHT22;7202;50.718;7.072;2024-03-23T02:56:44;8.10;99.90
14236;DHT22;7202;50.718;7.072;2024-03-23T02:59:29;8.10;99.90
14236;DHT22;7202;50.718;7.072;2024-03-23T03:02:15;8.10;99.90
14236;DHT22;7202;50.718;7.072;2024-03-23T03:05:01;8.10;99.90
14236;DHT22;7202;50.718;7.072;2024-03-23T03:07:47;8.00;99.90
14236;DHT22;7202;50.718;7.072;2024-03-23T03:10:32;8.10;99.90
14236;DHT22;7202;50.718;7.072;2024-03-23T03:13:22;7.80;99.90
14236;DHT22;7202;50.718;7.072;2024-03-23T03:16:08;7.60;99.90
14236;DHT22;7202;50.718;7.072;2024-03-23T03:18:55;7.40;99.90
14236;DHT22;7202;50.718;7.072;2024-03-23T03:21:40;7.30;99.90
14236;DHT22;7202;50.718;7.072;2024-03-23T03:24:27;7.20;99.90
14236;DHT22;7202;50.718;7.072;2024-03-23T03:27:13;7.10;99.90
14236;DHT22;7202;50.718;7.072;2024-03-23T03:30:02;7.00;99.90
14236;DHT22;7202;50.718;7.072;2024-03-23T03:32:47;6.90;99.90
14236;DHT22;7202;50.718;7.072;2024-03-23T03:35:34;7.10;99.90
14236;DHT22;7202;50.718;7.072;2024-03-23T03:38:19;6.80;99.90
14236;DHT22;7202;50.718;7.072;2024-03-23T03:41:05;6.90;99.90
14236;DHT22;7202;50.718;7.072;2024-03-23T03:43:52;6.80;99.90
14236;DHT22;7202;50.718;7.072;2024-03-23T03:46:38;6.90;99.90
14236;DHT22;7202;50.718;7.072;2024-03-23T03:49:24;6.80;99.90
14236;DHT22;7202;50.718;7.072;2024-03-23T03:52:10;6.80;99.90
14236;DHT22;7202;50.718;7.072;2024-03-23T03:55:01;6.80;99.90
14236;DHT22;7202;50.718;7.072;2024-03-23T03:57:47;6.80;99.90
14236;DHT22;7202;50.718;7.072;2024-03-23T04:00:33;6.80;99.90
14236;DHT22;7202;50.718;7.072;2024-03-23T04:03:20;6.80;99.90
14236;DHT22;7202;50.718;7.072;2024-03-23T04:06:06;6.80;99.90
14236;DHT22;7202;50.718;7.072;2024-03-23T04:08:51;6.80;99.90
14236;DHT22;7202;50.718;7.072;2024-03-23T04:11:38;6.80;99.90
14236;DHT22;7202;50.718;7.072;2024-03-23T04:14:23;6.80;99.90
14236;DHT22;7202;50.718;7.072;2024-03-23T04:17:09;6.70;99.90
14236;DHT22;7202;50.718;7.072;2024-03-23T04:19:56;6.70;99.90
14236;DHT22;7202;50.718;7.072;2024-03-23T04:22:42;6.70;99.90
14236;DHT22;7202;50.718;7.072;2024-03-23T04:25:27;6.70;99.90
14236;DHT22;7202;50.718;7.072;2024-03-23T04:28:13;6.70;99.90
14236;DHT22;7202;50.718;7.072;2024-03-23T04:31:03;6.70;99.90
14236;DHT22;7202;50.718;7.072;2024-03-23T04:33:49;6.70;99.90
14236;DHT22;7202;50.718;7.072;2024-03-23T04:36:36;6.70;99.90
14236;DHT22;7202;50.718;7.072;2024-03-23T04:39:22;6.70;99.90
14236;DHT22;7202;50.718;7.072;2024-03-23T04:42:08;6.60;99.90
14236;DHT22;7202;50.718;7.072;2024-03-23T04:44:54;6.60;99.90
14236;DHT22;7202;50.718;7.072;2024-03-23T04:47:40;6.60;99.90
14236;DHT22;7202;50.718;7.072;2024-03-23T04:50:27;6.60;99.90
14236;DHT22;7202;50.718;7.072;2024-03-23T04:53:14;6.60;99.90
14236;DHT22;7202;50.718;7.072;2024-03-23T04:56:00;6.60;99.90
14236;DHT22;7202;50.718;7.072;2024-03-23T04:58:47;6.50;99.90
14236;DHT22;7202;50.718;7.072;2024-03-23T05:01:32;6.50;99.90
14236;DHT22;7202;50.718;7.072;2024-03-23T05:04:21;6.50;99.90
14236;DHT22;7202;50.718;7.072;2024-03-23T05:07:07;6.60;99.90
14236;DHT22;7202;50.718;7.072;2024-03-23T05:09:54;6.50;99.90
14236;DHT22;7202;50.718;7.072;2024-03-23T05:12:39;6.50;99.90
14236;DHT22;7202;50.718;7.072;2024-03-23T05:15:26;6.50;99.90
14236;DHT22;7202;50.718;7.072;2024-03-23T05:18:11;6.50;99.90
14236;DHT22;7202;50.718;7.072;2024-03-23T05:20:57;6.60;99.90
14236;DHT22;7202;50.718;7.072;2024-03-23T05:23:43;6.60;99.90
14236;DHT22;7202;50.718;7.072;2024-03-23T05:26:31;6.60;99.90
14236;DHT22;7202;50.718;7.072;2024-03-23T05:29:16;6.50;99.90
14236;DHT22;7202;50.718;7.072;2024-03-23T05:32:03;6.50;99.90
14236;DHT22;7202;50.718;7.072;2024-03-23T05:34:49;6.50;99.90
14236;DHT22;7202;50.718;7.072;2024-03-23T05:37:36;6.50;99.90
14236;DHT22;7202;50.718;7.072;2024-03-23T05:40:22;6.40;99.90
14236;DHT22;7202;50.718;7.072;2024-03-23T05:43:09;6.50;99.90
14236;DHT22;7202;50.718;7.072;2024-03-23T05:45:54;6.40;99.90
14236;DHT22;7202;50.718;7.072;2024-03-23T05:48:41;6.40;99.90
14236;DHT22;7202;50.718;7.072;2024-03-23T05:51:26;6.40;99.90
14236;DHT22;7202;50.718;7.072;2024-03-23T05:54:12;6.40;99.90
14236;DHT22;7202;50.718;7.072;2024-03-23T05:56:57;6.40;99.90
14236;DHT22;7202;50.718;7.072;2024-03-23T05:59:45;6.40;99.90
14236;DHT22;7202;50.718;7.072;2024-03-23T06:02:30;6.40;99.90
14236;DHT22;7202;50.718;7.072;2024-03-23T06:05:17;6.40;99.90
14236;DHT22;7202;50.718;7.072;2024-03-23T06:08:02;6.40;99.90
14236;DHT22;7202;50.718;7.072;2024-03-23T06:10:48;6.40;99.90
14236;DHT22;7202;50.718;7.072;2024-03-23T06:13:35;6.40;99.90
14236;DHT22;7202;50.718;7.072;2024-03-23T06:16:23;6.40;99.90
14236;DHT22;7202;50.718;7.072;2024-03-23T06:19:09;6.40;99.90
14236;DHT22;7202;50.718;7.072;2024-03-23T06:21:55;6.50;99.90
14236;DHT22;7202;50.718;7.072;2024-03-23T06:24:40;6.50;99.90
14236;DHT22;7202;50.718;7.072;2024-03-23T06:27:26;6.40;99.90
14236;DHT22;7202;50.718;7.072;2024-03-23T06:30:12;6.50;99.90
14236;DHT22;7202;50.718;7.072;2024-03-23T06:33:00;6.50;99.90
14236;DHT22;7202;50.718;7.072;2024-03-23T06:35:50;6.50;99.90
14236;DHT22;7202;50.718;7.072;2024-03-23T06:38:37;6.60;99.90
14236;DHT22;7202;50.718;7.072;2024-03-23T06:41:23;6.60;99.90
14236;DHT22;7202;50.718;7.072;2024-03-23T06:44:09;6.60;99.90
14236;DHT22;7202;50.718;7.072;2024-03-23T06:46:54;6.60;99.90
14236;DHT22;7202;50.718;7.072;2024-03-23T06:49:41;6.60;99.90
14236;DHT22;7202;50.718;7.072;2024-03-23T06:52:28;6.60;99.90
14236;DHT22;7202;50.718;7.072;2024-03-23T06:55:13;6.70;99.90
14236;DHT22;7202;50.718;7.072;2024-03-23T06:57:59;6.60;99.90
14236;DHT22;7202;50.718;7.072;2024-03-23T07:00:44;6.70;99.90
14236;DHT22;7202;50.718;7.072;2024-03-23T07:03:30;6.70;99.90
14236;DHT22;7202;50.718;7.072;2024-03-23T07:06:17;6.80;99.90
14236;DHT22;7202;50.718;7.072;2024-03-23T07:09:03;6.80;99.90
14236;DHT22;7202;50.718;7.072;2024-03-23T07:11:48;6.90;99.90
14236;DHT22;7202;50.718;7.072;2024-03-23T07:14:35;6.90;99.90
14236;DHT22;7202;50.718;7.072;2024-03-23T07:17:20;6.90;99.90
14236;DHT22;7202;50.718;7.072;2024-03-23T07:20:07;7.00;99.90
14236;DHT22;7202;50.718;7.072;2024-03-23T07:22:57;7.10;99.90
14236;DHT22;7202;50.718;7.072;2024-03-23T07:25:43;7.10;99.90
14236;DHT22;7202;50.718;7.072;2024-03-23T07:28:28;7.10;99.90
14236;DHT22;7202;50.718;7.072;2024-03-23T07:31:17;7.20;99.90
14236;DHT22;7202;50.718;7.072;2024-03-23T07:34:02;7.20;99.90
14236;DHT22;7202;50.718;7.072;2024-03-23T07:36:48;7.30;99.90
14236;DHT22;7202;50.718;7.072;2024-03-23T07:39:34;7.30;99.90
14236;DHT22;7202;50.718;7.072;2024-03-23T07:42:20;7.30;99.90
14236;DHT22;7202;50.718;7.072;2024-03-23T07:45:06;7.40;99.90
14236;DHT22;7202;50.718;7.072;2024-03-23T07:47:54;7.40;99.90
14236;DHT22;7202;50.718;7.072;2024-03-23T07:50:39;7.50;99.90
14236;DHT22;7202;50.718;7.072;2024-03-23T07:53:25;7.50;99.90
14236;DHT22;7202;50.718;7.072;2024-03-23T07:56:12;7.60;99.90
14236;DHT22;7202;50.718;7.072;2024-03-23T07:59:00;7.70;99.90
14236;DHT22;7202;50.718;7.072;2024-03-23T08:01:45;7.80;99.90
14236;DHT22;7202;50.718;7.072;2024-03-23T08:04:31;7.80;99.90
14236;DHT22;7202;50.718;7.072;2024-03-23T08:07:16;7.90;99.90
14236;DHT22;7202;50.718;7.072;2024-03-23T08:10:03;8.10;99.90
14236;DHT22;7202;50.718;7.072;2024-03-23T08:12:50;8.30;99.90
14236;DHT22;7202;50.718;7.072;2024-03-23T08:15:36;8.50;99.90
14236;DHT22;7202;50.718;7.072;2024-03-23T08:18:22;8.60;99.90
14236;DHT22;7202;50.718;7.072;2024-03-23T08:21:08;8.20;99.90
14236;DHT22;7202;50.718;7.072;2024-03-23T08:23:53;7.90;99.90
14236;DHT22;7202;50.718;7.072;2024-03-23T08:26:39;7.70;99.90
14236;DHT22;7202;50.718;7.072;2024-03-23T08:29:26;7.60;99.90
14236;DHT22;7202;50.718;7.072;2024-03-23T08:32:12;7.60;99.90
14236;DHT22;7202;50.718;7.072;2024-03-23T08:34:58;7.50;99.90
14236;DHT22;7202;50.718;7.072;2024-03-23T08:37:44;7.50;99.90
14236;DHT22;7202;50.718;7.072;2024-03-23T08:40:31;7.60;99.90
14236;DHT22;7202;50.718;7.072;2024-03-23T08:43:17;7.70;99.90
14236;DHT22;7202;50.718;7.072;2024-03-23T08:46:07;7.80;99.90
14236;DHT22;7202;50.718;7.072;2024-03-23T08:48:52;7.90;99.90
14236;DHT22;7202;50.718;7.072;2024-03-23T08:51:38;8.00;99.90
14236;DHT22;7202;50.718;7.072;2024-03-23T08:54:23;8.10;99.90
14236;DHT22;7202;50.718;7.072;2024-03-23T08:57:12;8.40;99.90
14236;DHT22;7202;50.718;7.072;2024-03-23T08:59:57;8.50;99.90
14236;DHT22;7202;50.718;7.072;2024-03-23T09:02:48;8.60;99.90
14236;DHT22;7202;50.718;7.072;2024-03-23T09:05:38;8.80;99.90
14236;DHT22;7202;50.718;7.072;2024-03-23T09:08:25;8.90;99.90
14236;DHT22;7202;50.718;7.072;2024-03-23T09:11:12;9.10;99.90
14236;DHT22;7202;50.718;7.072;2024-03-23T09:13:58;9.40;99.90
14236;DHT22;7202;50.718;7.072;2024-03-23T09:16:43;9.50;99.90
14236;DHT22;7202;50.718;7.072;2024-03-23T09:19:31;9.60;99.90
14236;DHT22;7202;50.718;7.072;2024-03-23T09:22:16;9.70;99.90
14236;DHT22;7202;50.718;7.072;2024-03-23T09:25:04;9.80;99.90
14236;DHT22;7202;50.718;7.072;2024-03-23T09:27:50;9.80;99.90
14236;DHT22;7202;50.718;7.072;2024-03-23T09:30:36;9.80;99.90
14236;DHT22;7202;50.718;7.072;2024-03-23T09:33:27;9.80;99.90
14236;DHT22;7202;50.718;7.072;2024-03-23T09:36:16;9.90;99.90
14236;DHT22;7202;50.718;7.072;2024-03-23T09:39:01;9.90;99.90
14236;DHT22;7202;50.718;7.072;2024-03-23T09:41:48;9.80;99.90
14236;DHT22;7202;50.718;7.072;2024-03-23T09:44:35;9.80;99.90
14236;DHT22;7202;50.718;7.072;2024-03-23T09:47:21;9.80;99.90
14236;DHT22;7202;50.718;7.072;2024-03-23T09:50:07;9.90;99.90
14236;DHT22;7202;50.718;7.072;2024-03-23T09:52:55;10.00;99.90
14236;DHT22;7202;50.718;7.072;2024-03-23T09:55:43;10.10;99.90
14236;DHT22;7202;50.718;7.072;2024-03-23T09:58:29;10.30;99.90
14236;DHT22;7202;50.718;7.072;2024-03-23T10:01:16;10.50;99.90
14236;DHT22;7202;50.718;7.072;2024-03-23T10:04:03;10.70;99.90
14236;DHT22;7202;50.718;7.072;2024-03-23T10:06:49;10.70;99.90
14236;DHT22;7202;50.718;7.072;2024-03-23T10:09:36;10.70;99.90
14236;DHT22;7202;50.718;7.072;2024-03-23T10:12:24;10.60;99.90
14236;DHT22;7202;50.718;7.072;2024-03-23T10:15:17;10.50;99.90
14236;DHT22;7202;50.718;7.072;2024-03-23T10:18:17;10.50;99.90
14236;DHT22;7202;50.718;7.072;2024-03-23T10:21:07;10.50;99.90
14236;DHT22;7202;50.718;7.072;2024-03-23T10:23:56;10.70;99.90
14236;DHT22;7202;50.718;7.072;2024-03-23T10:26:42;10.90;99.90
14236;DHT22;7202;50.718;7.072;2024-03-23T10:29:29;11.20;99.90
14236;DHT22;7202;50.718;7.072;2024-03-23T10:32:15;10.80;99.90
14236;DHT22;7202;50.718;7.072;2024-03-23T10:35:16;10.70;99.90
14236;DHT22;7202;50.718;7.072;2024-03-23T10:38:05;10.40;99.90
14236;DHT22;7202;50.718;7.072;2024-03-23T10:40:53;10.10;99.90
14236;DHT22;7202;50.718;7.072;2024-03-23T10:43:40;9.80;99.90
14236;DHT22;7202;50.718;7.072;2024-03-23T10:46:27;9.40;99.90
14236;DHT22;7202;50.718;7.072;2024-03-23T10:49:12;9.10;99.90
14236;DHT22;7202;50.718;7.072;2024-03-23T10:52:00;8.90;99.90
14236;DHT22;7202;50.718;7.072;2024-03-23T10:54:47;8.70;99.90
14236;DHT22;7202;50.718;7.072;2024-03-23T10:57:41;8.50;99.90
14236;DHT22;7202;50.718;7.072;2024-03-23T11:00:33;8.30;99.90
14236;DHT22;7202;50.718;7.072;2024-03-23T11:03:32;8.40;99.90
14236;DHT22;7202;50.718;7.072;2024-03-23T11:06:34;8.40;99.90
14236;DHT22;7202;50.718;7.072;2024-03-23T11:09:40;8.50;99.90
14236;DHT22;7202;50.718;7.072;2024-03-23T11:12:29;8.70;99.90
14236;DHT22;7202;50.718;7.072;2024-03-23T11:15:17;8.90;99.90
14236;DHT22;7202;50.718;7.072;2024-03-23T11:18:07;9.20;99.90
14236;DHT22;7202;50.718;7.072;2024-03-23T11:20:54;9.40;99.90
14236;DHT22;7202;50.718;7.072;2024-03-23T11:23:40;9.60;99.90
14236;DHT22;7202;50.718;7.072;2024-03-23T11:26:26;9.70;99.90
14236;DHT22;7202;50.718;7.072;2024-03-23T11:29:14;9.90;99.90
14236;DHT22;7202;50.718;7.072;2024-03-23T11:32:01;9.90;99.90
14236;DHT22;7202;50.718;7.072;2024-03-23T11:34:51;10.00;99.90
14236;DHT22;7202;50.718;7.072;2024-03-23T11:37:39;9.90;99.90
14236;DHT22;7202;50.718;7.072;2024-03-23T11:40:27;9.80;99.90
14236;DHT22;7202;50.718;7.072;2024-03-23T11:43:14;9.80;99.90
14236;DHT22;7202;50.718;7.072;2024-03-23T11:46:00;9.80;99.90
14236;DHT22;7202;50.718;7.072;2024-03-23T11:48:50;10.00;99.90
14236;DHT22;7202;50.718;7.072;2024-03-23T11:51:37;10.30;99.90
14236;DHT22;7202;50.718;7.072;2024-03-23T11:54:25;10.70;99.90
14236;DHT22;7202;50.718;7.072;2024-03-23T11:57:10;10.90;99.90
14236;DHT22;7202;50.718;7.072;2024-03-23T11:59:56;10.70;99.90
14236;DHT22;7202;50.718;7.072;2024-03-23T12:02:42;10.60;99.90
14236;DHT22;7202;50.718;7.072;2024-03-23T12:05:28;10.50;99.90
14236;DHT22;7202;50.718;7.072;2024-03-23T12:08:21;10.40;99.90
14236;DHT22;7202;50.718;7.072;2024-03-23T12:11:11;10.30;99.90
14236;DHT22;7202;50.718;7.072;2024-03-23T12:13:59;10.30;99.90
14236;DHT22;7202;50.718;7.072;2024-03-23T12:16:46;10.50;99.90
14236;DHT22;7202;50.718;7.072;2024-03-23T12:19:31;10.70;99.90
14236;DHT22;7202;50.718;7.072;2024-03-23T12:22:20;10.90;99.90
14236;DHT22;7202;50.718;7.072;2024-03-23T12:25:08;11.00;99.90
14236;DHT22;7202;50.718;7.072;2024-03-23T12:27:58;11.10;99.90
14236;DHT22;7202;50.718;7.072;2024-03-23T12:30:44;11.30;99.90
14236;DHT22;7202;50.718;7.072;2024-03-23T12:33:30;11.10;99.90
14236;DHT22;7202;50.718;7.072;2024-03-23T12:36:16;11.10;99.90
14236;DHT22;7202;50.718;7.072;2024-03-23T12:39:01;11.00;99.90
14236;DHT22;7202;50.718;7.072;2024-03-23T12:41:49;11.10;99.90
14236;DHT22;7202;50.718;7.072;2024-03-23T12:44:35;11.20;99.90
14236;DHT22;7202;50.718;7.072;2024-03-23T12:47:21;11.30;99.90
14236;DHT22;7202;50.718;7.072;2024-03-23T12:50:07;11.50;99.90
14236;DHT22;7202;50.718;7.072;2024-03-23T12:52:54;11.70;99.90
14236;DHT22;7202;50.718;7.072;2024-03-23T12:55:40;11.60;99.90
14236;DHT22;7202;50.718;7.072;2024-03-23T12:58:27;11.10;99.90
14236;DHT22;7202;50.718;7.072;2024-03-23T13:01:12;10.70;99.90
14236;DHT22;7202;50.718;7.072;2024-03-23T13:03:58;10.30;99.90
14236;DHT22;7202;50.718;7.072;2024-03-23T13:06:45;10.00;99.90
14236;DHT22;7202;50.718;7.072;2024-03-23T13:09:31;9.80;99.90
14236;DHT22;7202;50.718;7.072;2024-03-23T13:12:17;9.60;99.90
14236;DHT22;7202;50.718;7.072;2024-03-23T13:15:10;9.40;99.90
14236;DHT22;7202;50.718;7.072;2024-03-23T13:18:17;9.40;99.90
14236;DHT22;7202;50.718;7.072;2024-03-23T13:21:04;9.30;99.90
14236;DHT22;7202;50.718;7.072;2024-03-23T13:23:50;9.40;99.90
14236;DHT22;7202;50.718;7.072;2024-03-23T13:26:36;9.50;99.90
14236;DHT22;7202;50.718;7.072;2024-03-23T13:29:22;9.70;99.90
14236;DHT22;7202;50.718;7.072;2024-03-23T13:32:09;9.80;99.90
14236;DHT22;7202;50.718;7.072;2024-03-23T13:34:56;10.00;99.90
14236;DHT22;7202;50.718;7.072;2024-03-23T13:37:41;10.00;99.90
14236;DHT22;7202;50.718;7.072;2024-03-23T13:40:27;10.20;99.90
14236;DHT22;7202;50.718;7.072;2024-03-23T13:43:13;10.30;99.90
14236;DHT22;7202;50.718;7.072;2024-03-23T13:45:59;10.40;99.90
14236;DHT22;7202;50.718;7.072;2024-03-23T13:48:46;10.40;99.90
14236;DHT22;7202;50.718;7.072;2024-03-23T13:51:32;10.40;99.90
14236;DHT22;7202;50.718;7.072;2024-03-23T13:54:18;10.50;99.90
14236;DHT22;7202;50.718;7.072;2024-03-23T13:57:04;10.70;99.90
14236;DHT22;7202;50.718;7.072;2024-03-23T13:59:49;10.80;99.90
14236;DHT22;7202;50.718;7.072;2024-03-23T14:02:36;10.90;99.90
14236;DHT22;7202;50.718;7.072;2024-03-23T14:05:22;10.70;99.90
14236;DHT22;7202;50.718;7.072;2024-03-23T14:08:12;10.60;99.90
14236;DHT22;7202;50.718;7.072;2024-03-23T14:10:57;10.50;99.90
14236;DHT22;7202;50.718;7.072;2024-03-23T14:13:43;10.40;99.90
14236;DHT22;7202;50.718;7.072;2024-03-23T14:16:29;10.40;99.90
14236;DHT22;7202;50.718;7.072;2024-03-23T14:19:15;10.40;99.90
14236;DHT22;7202;50.718;7.072;2024-03-23T14:22:02;10.30;99.90
14236;DHT22;7202;50.718;7.072;2024-03-23T14:24:49;10.20;99.90
14236;DHT22;7202;50.718;7.072;2024-03-23T14:27:34;10.10;99.90
14236;DHT22;7202;50.718;7.072;2024-03-23T14:30:22;10.10;99.90
14236;DHT22;7202;50.718;7.072;2024-03-23T14:33:07;9.90;99.90
14236;DHT22;7202;50.718;7.072;2024-03-23T14:35:54;9.80;99.90
14236;DHT22;7202;50.718;7.072;2024-03-23T14:38:42;9.70;99.90
14236;DHT22;7202;50.718;7.072;2024-03-23T14:41:28;9.50;99.90
14236;DHT22;7202;50.718;7.072;2024-03-23T14:44:13;9.40;99.90
14236;DHT22;7202;50.718;7.072;2024-03-23T14:46:59;9.30;99.90
14236;DHT22;7202;50.718;7.072;2024-03-23T14:49:45;9.10;99.90
14236;DHT22;7202;50.718;7.072;2024-03-23T14:52:32;8.80;99.90
14236;DHT22;7202;50.718;7.072;2024-03-23T14:55:18;8.50;99.90
14236;DHT22;7202;50.718;7.072;2024-03-23T14:58:05;8.20;99.90
14236;DHT22;7202;50.718;7.072;2024-03-23T15:00:50;8.00;99.90
14236;DHT22;7202;50.718;7.072;2024-03-23T15:03:36;8.00;99.90
14236;DHT22;7202;50.718;7.072;2024-03-23T15:06:24;7.90;99.90
14236;DHT22;7202;50.718;7.072;2024-03-23T15:09:09;7.90;99.90
14236;DHT22;7202;50.718;7.072;2024-03-23T15:11:57;7.90;99.90
14236;DHT22;7202;50.718;7.072;2024-03-23T15:14:43;8.00;99.90
14236;DHT22;7202;50.718;7.072;2024-03-23T15:17:29;7.90;99.90
14236;DHT22;7202;50.718;7.072;2024-03-23T15:20:19;7.90;99.90
14236;DHT22;7202;50.718;7.072;2024-03-23T15:23:05;7.90;99.90
14236;DHT22;7202;50.718;7.072;2024-03-23T15:25:54;7.90;99.90
14236;DHT22;7202;50.718;7.072;2024-03-23T15:28:42;7.90;99.90
14236;DHT22;7202;50.718;7.072;2024-03-23T15:31:47;7.90;99.90
14236;DHT22;7202;50.718;7.072;2024-03-23T15:34:37;7.90;99.90
14236;DHT22;7202;50.718;7.072;2024-03-23T15:37:22;8.00;99.90
14236;DHT22;7202;50.718;7.072;2024-03-23T15:40:09;8.00;99.90
14236;DHT22;7202;50.718;7.072;2024-03-23T15:42:55;8.00;99.90
14236;DHT22;7202;50.718;7.072;2024-03-23T15:45:42;8.10;99.90
14236;DHT22;7202;50.718;7.072;2024-03-23T15:48:27;8.10;99.90
14236;DHT22;7202;50.718;7.072;2024-03-23T15:51:14;8.00;99.90
14236;DHT22;7202;50.718;7.072;2024-03-23T15:53:59;8.00;99.90
14236;DHT22;7202;50.718;7.072;2024-03-23T15:56:45;8.00;99.90
14236;DHT22;7202;50.718;7.072;2024-03-23T15:59:30;7.90;99.90
14236;DHT22;7202;50.718;7.072;2024-03-23T16:02:18;8.00;99.90
14236;DHT22;7202;50.718;7.072;2024-03-23T16:05:03;7.90;99.90
14236;DHT22;7202;50.718;7.072;2024-03-23T16:07:50;8.00;99.90
14236;DHT22;7202;50.718;7.072;2024-03-23T16:10:35;8.10;99.90
14236;DHT22;7202;50.718;7.072;2024-03-23T16:13:21;8.20;99.90
14236;DHT22;7202;50.718;7.072;2024-03-23T16:16:06;8.20;99.90
14236;DHT22;7202;50.718;7.072;2024-03-23T16:18:54;8.10;99.90
14236;DHT22;7202;50.718;7.072;2024-03-23T16:21:39;8.00;99.90
14236;DHT22;7202;50.718;7.072;2024-03-23T16:24:25;8.00;99.90
14236;DHT22;7202;50.718;7.072;2024-03-23T16:27:10;7.90;99.90
14236;DHT22;7202;50.718;7.072;2024-03-23T16:29:56;7.80;99.90
14236;DHT22;7202;50.718;7.072;2024-03-23T16:32:42;7.80;99.90
14236;DHT22;7202;50.718;7.072;2024-03-23T16:35:29;7.70;99.90
14236;DHT22;7202;50.718;7.072;2024-03-23T16:38:14;7.60;99.90
14236;DHT22;7202;50.718;7.072;2024-03-23T16:41:01;7.60;99.90
14236;DHT22;7202;50.718;7.072;2024-03-23T16:43:47;7.40;99.90
14236;DHT22;7202;50.718;7.072;2024-03-23T16:46:33;7.10;99.90
14236;DHT22;7202;50.718;7.072;2024-03-23T16:49:18;6.90;99.90
14236;DHT22;7202;50.718;7.072;2024-03-23T16:52:06;6.70;99.90
14236;DHT22;7202;50.718;7.072;2024-03-23T16:54:51;6.60;99.90
14236;DHT22;7202;50.718;7.072;2024-03-23T16:57:37;6.60;99.90
14236;DHT22;7202;50.718;7.072;2024-03-23T17:00:22;6.60;99.90
14236;DHT22;7202;50.718;7.072;2024-03-23T17:03:09;6.50;99.90
14236;DHT22;7202;50.718;7.072;2024-03-23T17:05:54;6.50;99.90
14236;DHT22;7202;50.718;7.072;2024-03-23T17:08:41;6.50;99.90
14236;DHT22;7202;50.718;7.072;2024-03-23T17:11:26;6.50;99.90
14236;DHT22;7202;50.718;7.072;2024-03-23T17:14:13;6.50;99.90
14236;DHT22;7202;50.718;7.072;2024-03-23T17:17:00;6.60;99.90
14236;DHT22;7202;50.718;7.072;2024-03-23T17:19:46;6.60;99.90
14236;DHT22;7202;50.718;7.072;2024-03-23T17:22:31;6.60;99.90
14236;DHT22;7202;50.718;7.072;2024-03-23T17:25:19;6.60;99.90
14236;DHT22;7202;50.718;7.072;2024-03-23T17:28:04;6.60;99.90
14236;DHT22;7202;50.718;7.072;2024-03-23T17:30:51;6.50;99.90
14236;DHT22;7202;50.718;7.072;2024-03-23T17:33:36;6.40;99.90
14236;DHT22;7202;50.718;7.072;2024-03-23T17:36:22;6.40;99.90
14236;DHT22;7202;50.718;7.072;2024-03-23T17:39:12;6.30;99.90
14236;DHT22;7202;50.718;7.072;2024-03-23T17:41:59;6.20;99.90
14236;DHT22;7202;50.718;7.072;2024-03-23T17:44:45;6.10;99.90
14236;DHT22;7202;50.718;7.072;2024-03-23T17:47:35;6.00;99.90
14236;DHT22;7202;50.718;7.072;2024-03-23T17:50:21;5.90;99.90
14236;DHT22;7202;50.718;7.072;2024-03-23T17:53:07;5.80;99.90
14236;DHT22;7202;50.718;7.072;2024-03-23T17:55:53;5.80;99.90
14236;DHT22;7202;50.718;7.072;2024-03-23T17:58:39;5.70;99.90
14236;DHT22;7202;50.718;7.072;2024-03-23T18:01:25;5.70;99.90
14236;DHT22;7202;50.718;7.072;2024-03-23T18:04:11;5.60;99.90
14236;DHT22;7202;50.718;7.072;2024-03-23T18:06:58;5.60;99.90
14236;DHT22;7202;50.718;7.072;2024-03-23T18:09:44;5.60;99.90
14236;DHT22;7202;50.718;7.072;2024-03-23T18:12:29;5.60;99.90
14236;DHT22;7202;50.718;7.072;2024-03-23T18:15:18;5.50;99.90
14236;DHT22;7202;50.718;7.072;2024-03-23T18:18:04;5.50;99.90
14236;DHT22;7202;50.718;7.072;2024-03-23T18:20:50;5.50;99.90
14236;DHT22;7202;50.718;7.072;2024-03-23T18:23:35;5.50;99.90
14236;DHT22;7202;50.718;7.072;2024-03-23T18:26:21;5.50;99.90
14236;DHT22;7202;50.718;7.072;2024-03-23T18:29:07;5.40;99.90
14236;DHT22;7202;50.718;7.072;2024-03-23T18:31:56;5.40;99.90
14236;DHT22;7202;50.718;7.072;2024-03-23T18:34:43;5.40;99.90
14236;DHT22;7202;50.718;7.072;2024-03-23T18:37:29;5.40;99.90
14236;DHT22;7202;50.718;7.072;2024-03-23T18:40:15;5.40;99.90
14236;DHT22;7202;50.718;7.072;2024-03-23T18:43:03;5.50;99.90
14236;DHT22;7202;50.718;7.072;2024-03-23T18:45:49;5.50;99.90
14236;DHT22;7202;50.718;7.072;2024-03-23T18:48:36;5.50;99.90
14236;DHT22;7202;50.718;7.072;2024-03-23T18:51:22;5.50;99.90
14236;DHT22;7202;50.718;7.072;2024-03-23T18:54:11;5.50;99.90
14236;DHT22;7202;50.718;7.072;2024-03-23T18:56:56;5.60;99.90
14236;DHT22;7202;50.718;7.072;2024-03-23T18:59:42;5.60;99.90